01:14
Airports
History
Links
Donate
Help keep this website running!
PayPal
Bitcoin
Information on this page is community maintained and may be outdated or inaccurate and is intended for reference only or PC simulator navigating!
Always use approved charts for navigating.
5B3
Danielson
Danielson (5B3)
Killingly, Connecticut, United States (6241)
(U)
Lat/Lng:41° 49' 11.07" N / 71° 54' 3.47" W
41.819741 / -71.900963
Elevation:238'ft 73mMSL
ID / ICAO:5B3
Runways:1
Longest:(13-31) 820.8m 2,693ft Asphalt
Distance To
Airport ID:
Nearby VORs <50NM
Nearby NDBs
Nearby WeatherUpdated 04-27-17 00:52 GMT
Nearby weather at KIJD, Windham located 15.3 nautical miles from 5B3
Altimeter: 29.83
Visibility: 5.0 statute miles
Wind: 3 knots (360°)
Temp: 16°c 61°f
Humidity: 93.8%

METAR: KIJD 270052Z AUTO 36003KT 5SM BR OVC006 16/15 A2983 RMK AO2 SLP101 T01610150

(Powered by phpweather)
Runway 13 / 31
Dimensions:820.8 x 22.9m 2693' x 75'ft
Surface:Asphalt
Edge Lights:Medium intensity
Runway 13 [A]Runway 31 [B]
Heading:119°TH 299°TH
Lat:
Lng:
41° 49' 17.66"N
71° 54' 18.96"W
41° 49' 4.47"N
71° 53' 47.97"W
Google Map
Nearby Airports
(U) Danielson 0.0 NM
KLZD NW 323°
(R) Yankee Airstrip 6.2 NM
CT13 NE 44°
(R) Riconn 10.4 NM
RI11 SE 144°
4 Eastford 10.6 NM
5CT0 NW 306°
(U) Toutant 12.3 NM
C44 NW 319°
(U) Windham 15.3 NM
KIJD (WX) WSW 250°
(R) Spruce 15.7 NM
CT43 S 185°
VFR Chart
Flight Planning at SkyVector.com